createdAt,value
2018-06-05T00:01:28.480Z,15.60
2018-06-05T00:03:57.149Z,16.47
2018-06-05T00:06:25.545Z,16.07
2018-06-05T00:08:53.918Z,16.27
2018-06-05T00:11:22.318Z,17.83
2018-06-05T00:13:50.652Z,15.47
2018-06-05T00:16:18.991Z,16.83
2018-06-05T00:18:47.323Z,16.60
2018-06-05T00:21:15.845Z,16.73
2018-06-05T00:23:44.184Z,21.30
2018-06-05T00:26:13.124Z,16.97
2018-06-05T00:28:41.504Z,18.30
2018-06-05T00:31:09.873Z,18.07
2018-06-05T00:33:38.351Z,17.37
2018-06-05T00:36:06.789Z,17.37
2018-06-05T00:38:35.169Z,17.97
2018-06-05T00:41:03.531Z,18.23
2018-06-05T00:43:31.989Z,21.93
2018-06-05T00:46:00.352Z,18.50
2018-06-05T00:48:29.410Z,24.20
2018-06-05T00:50:58.200Z,19.43
2018-06-05T00:53:26.658Z,18.43
2018-06-05T00:55:55.041Z,19.40
2018-06-05T00:58:23.420Z,19.60
2018-06-05T01:00:51.805Z,19.57
2018-06-05T01:03:20.282Z,18.73
2018-06-05T01:05:48.647Z,19.87
2018-06-05T01:08:17.431Z,18.97
2018-06-05T01:10:45.870Z,20.00
2018-06-05T01:13:14.253Z,20.20
2018-06-05T01:15:42.663Z,21.57
2018-06-05T01:18:11.102Z,20.40
2018-06-05T01:20:39.607Z,19.77
2018-06-05T01:23:07.952Z,20.50
2018-06-05T01:25:36.303Z,20.57
2018-06-05T01:28:04.673Z,20.47
2018-06-05T01:30:33.048Z,20.60
2018-06-05T01:33:01.614Z,21.10
2018-06-05T01:35:29.949Z,20.57
2018-06-05T01:37:59.145Z,21.60
2018-06-05T01:40:27.497Z,20.90
2018-06-05T01:42:55.875Z,23.30
2018-06-05T01:45:24.226Z,21.23
2018-06-05T01:47:53.109Z,21.30
2018-06-05T01:50:25.743Z,23.47
2018-06-05T01:52:54.096Z,23.10
2018-06-05T01:55:23.113Z,22.17
2018-06-05T01:57:51.513Z,21.80
2018-06-05T02:00:21.098Z,22.40
2018-06-05T02:02:49.472Z,21.87
2018-06-05T02:05:17.554Z,20.60
2018-06-05T02:07:45.868Z,22.00
2018-06-05T02:10:14.241Z,22.70
2018-06-05T02:12:42.661Z,27.60
2018-06-05T02:15:11.055Z,24.53
2018-06-05T02:17:39.407Z,24.63
2018-06-05T02:20:07.849Z,24.30
2018-06-05T02:22:36.215Z,22.70
2018-06-05T02:25:04.892Z,23.27
2018-06-05T02:27:33.270Z,23.73
2018-06-05T02:30:01.647Z,22.60
2018-06-05T02:32:34.335Z,22.73
2018-06-05T02:35:02.693Z,23.30
2018-06-05T02:37:31.067Z,23.70
2018-06-05T02:39:59.430Z,23.83
2018-06-05T02:42:27.817Z,25.40
2018-06-05T02:44:56.217Z,25.10
2018-06-05T02:47:25.124Z,23.30
2018-06-05T02:49:53.521Z,24.30
2018-06-05T02:52:21.891Z,24.60
2018-06-05T02:54:50.262Z,22.60
2018-06-05T02:57:18.638Z,23.27
2018-06-05T02:59:47.392Z,25.93
2018-06-05T03:02:16.203Z,23.47
2018-06-05T03:04:44.571Z,25.43
2018-06-05T03:07:12.964Z,24.47
2018-06-05T03:09:41.374Z,26.07
2018-06-05T03:12:10.523Z,26.77
2018-06-05T03:14:38.924Z,24.03
2018-06-05T03:17:07.275Z,26.37
2018-06-05T03:19:35.641Z,25.47
2018-06-05T03:22:04.252Z,25.40
2018-06-05T03:24:32.600Z,26.20
2018-06-05T03:27:00.962Z,25.60
2018-06-05T03:29:29.351Z,25.70
2018-06-05T03:31:57.780Z,26.70
2018-06-05T03:34:33.167Z,24.40
2018-06-05T03:37:01.587Z,31.70
2018-06-05T03:39:29.969Z,28.00
2018-06-05T03:41:58.351Z,26.43
2018-06-05T03:44:26.766Z,28.37
2018-06-05T03:46:55.217Z,26.53
2018-06-05T03:49:23.638Z,25.27
2018-06-05T03:51:51.990Z,27.63
2018-06-05T03:54:20.414Z,27.10
2018-06-05T03:56:48.786Z,26.93
2018-06-05T03:59:17.169Z,26.80
2018-06-05T04:01:45.535Z,26.60
2018-06-05T04:04:13.965Z,30.37
2018-06-05T04:06:42.325Z,27.27
2018-06-05T04:09:10.732Z,25.97
2018-06-05T04:11:39.118Z,28.70
2018-06-05T04:14:07.508Z,30.90
2018-06-05T04:16:35.854Z,28.20
2018-06-05T04:19:04.219Z,27.70
2018-06-05T04:21:32.610Z,26.00
2018-06-05T04:24:00.976Z,28.10
2018-06-05T04:26:29.652Z,30.13
2018-06-05T04:28:58.011Z,28.50
2018-06-05T04:31:28.309Z,30.70
2018-06-05T04:33:57.547Z,30.73
2018-06-05T04:36:25.952Z,30.87
2018-06-05T04:38:54.281Z,27.47
2018-06-05T04:41:22.651Z,30.70
2018-06-05T04:43:51.038Z,32.23
2018-06-05T04:46:19.459Z,32.23
2018-06-05T04:48:47.822Z,31.83
2018-06-05T04:51:16.154Z,30.20
2018-06-05T04:53:44.495Z,26.67
2018-06-05T04:56:13.058Z,30.37
2018-06-05T04:58:41.412Z,31.83
2018-06-05T05:01:09.769Z,28.30
2018-06-05T05:03:38.226Z,27.10
2018-06-05T05:06:06.569Z,28.10
2018-06-05T05:08:35.320Z,27.70
2018-06-05T05:11:04.021Z,27.50
2018-06-05T05:13:32.374Z,28.47
2018-06-05T05:16:00.710Z,33.67
2018-06-05T05:18:31.240Z,31.10
2018-06-05T05:21:00.036Z,31.23
2018-06-05T05:23:28.422Z,29.93
2018-06-05T05:25:56.757Z,29.07
2018-06-05T05:28:25.181Z,34.53
2018-06-05T05:30:53.543Z,27.80
2018-06-05T05:33:21.897Z,28.00
2018-06-05T05:35:50.276Z,40.50
2018-06-05T05:38:18.620Z,28.93
2018-06-05T05:40:46.997Z,31.33
2018-06-05T05:43:15.434Z,31.37
2018-06-05T05:45:43.807Z,29.60
2018-06-05T05:48:12.129Z,30.20
2018-06-05T05:50:40.518Z,32.70
2018-06-05T05:53:08.912Z,29.70
2018-06-05T05:55:41.327Z,26.13
2018-06-05T05:58:09.407Z,32.20
2018-06-05T06:00:37.831Z,31.37
2018-06-05T06:03:06.174Z,29.87
2018-06-05T06:05:34.540Z,29.60
2018-06-05T06:08:02.993Z,28.27
2018-06-05T06:10:35.792Z,25.83
2018-06-05T06:13:04.258Z,28.37
2018-06-05T06:15:33.123Z,27.10
2018-06-05T06:18:01.207Z,26.90
2018-06-05T06:20:30.047Z,27.40
2018-06-05T06:22:58.431Z,26.53
2018-06-05T06:25:26.858Z,27.60
2018-06-05T06:27:55.258Z,25.57
2018-06-05T06:30:23.779Z,26.27
2018-06-05T06:32:52.726Z,27.53
2018-06-05T06:35:21.122Z,27.83
2018-06-05T06:37:53.879Z,29.27
2018-06-05T06:40:22.337Z,28.83
2018-06-05T06:42:50.721Z,27.90
2018-06-05T06:45:23.426Z,27.30
2018-06-05T06:47:51.835Z,26.63
2018-06-05T06:50:20.263Z,25.40
2018-06-05T06:52:48.844Z,27.63
2018-06-05T06:55:17.348Z,26.10
2018-06-05T06:57:46.966Z,26.67
2018-06-05T07:00:15.717Z,30.27
2018-06-05T07:02:44.659Z,25.80
2018-06-05T07:05:13.019Z,27.40
2018-06-05T07:07:41.435Z,27.77
2018-06-05T07:10:09.904Z,27.03
2018-06-05T07:12:38.337Z,25.63
2018-06-05T07:15:06.775Z,25.93
2018-06-05T07:17:35.319Z,25.37
2018-06-05T07:20:03.785Z,26.80
2018-06-05T07:22:32.749Z,28.47
2018-06-05T07:25:01.253Z,27.00
2018-06-05T07:27:30.202Z,27.33
2018-06-05T07:29:58.625Z,27.67
2018-06-05T07:32:26.966Z,27.13
2018-06-05T07:34:55.965Z,29.77
2018-06-05T07:37:24.559Z,27.87
2018-06-05T07:39:52.980Z,27.30
2018-06-05T07:42:23.513Z,29.00
2018-06-05T07:44:52.046Z,26.13
2018-06-05T07:47:20.473Z,27.63
2018-06-05T07:49:49.599Z,26.93
2018-06-05T07:52:18.266Z,27.70
2018-06-05T07:54:46.858Z,24.90
2018-06-05T07:57:45.054Z,27.00
2018-06-05T08:00:35.353Z,27.30
2018-06-05T08:03:04.917Z,26.80
2018-06-05T08:05:34.367Z,27.50
2018-06-05T08:08:03.991Z,25.47
2018-06-05T08:10:32.332Z,27.10
2018-06-05T08:13:00.675Z,25.80
2018-06-05T08:15:29.369Z,25.87
2018-06-05T08:17:58.110Z,24.00
2018-06-05T08:20:26.495Z,26.23
2018-06-05T08:22:56.082Z,25.37
2018-06-05T08:25:24.491Z,24.90
2018-06-05T08:27:52.941Z,24.03
2018-06-05T08:30:21.332Z,23.70
2018-06-05T08:32:50.383Z,22.37
2018-06-05T08:35:18.755Z,22.70
2018-06-05T08:37:47.126Z,22.60
2018-06-05T08:40:15.510Z,26.73
2018-06-05T08:42:43.840Z,25.73
2018-06-05T08:45:12.290Z,23.80
2018-06-05T08:47:40.574Z,25.07
2018-06-05T08:50:08.994Z,25.60
2018-06-05T08:52:37.356Z,24.83
2018-06-05T08:55:06.425Z,23.10
2018-06-05T08:57:34.772Z,24.03
2018-06-05T09:00:03.207Z,22.70
2018-06-05T09:02:31.586Z,22.13
2018-06-05T09:04:59.967Z,23.47
2018-06-05T09:07:28.370Z,22.03
2018-06-05T09:09:56.765Z,20.77
2018-06-05T09:12:25.145Z,21.37
2018-06-05T09:14:53.588Z,20.27
2018-06-05T09:17:21.991Z,20.53
2018-06-05T09:19:50.380Z,21.27
2018-06-05T09:22:18.829Z,21.63
2018-06-05T09:24:47.215Z,20.83
2018-06-05T09:27:15.602Z,19.83
2018-06-05T09:29:44.019Z,19.63
2018-06-05T09:32:12.391Z,20.17
2018-06-05T09:34:40.712Z,20.23
2018-06-05T09:37:09.107Z,19.70
2018-06-05T09:39:37.551Z,18.30
2018-06-05T09:42:05.846Z,19.77
2018-06-05T09:44:34.327Z,21.17
2018-06-05T09:47:02.753Z,17.00
2018-06-05T09:49:31.129Z,18.87
2018-06-05T09:51:59.583Z,20.73
2018-06-05T09:54:27.983Z,18.93
2018-06-05T09:56:57.427Z,18.37
2018-06-05T09:59:25.798Z,18.60
2018-06-05T10:01:54.186Z,16.90
2018-06-05T10:04:22.539Z,19.23
2018-06-05T10:06:50.941Z,18.20
2018-06-05T10:09:19.287Z,19.43
2018-06-05T10:11:47.651Z,17.27
2018-06-05T10:14:16.045Z,16.73
2018-06-05T10:16:44.367Z,17.47
2018-06-05T10:19:12.721Z,19.30
2018-06-05T10:21:41.142Z,16.90
2018-06-05T10:24:09.471Z,16.17
2018-06-05T10:26:37.835Z,15.83
2018-06-05T10:29:06.245Z,15.70
2018-06-05T10:31:34.560Z,18.93
2018-06-05T10:34:02.995Z,15.73
2018-06-05T10:36:31.389Z,16.37
2018-06-05T10:38:59.745Z,15.70
2018-06-05T10:41:28.039Z,15.70
2018-06-05T10:43:56.414Z,15.80
2018-06-05T10:46:24.717Z,15.77
2018-06-05T10:48:53.080Z,16.23
2018-06-05T10:51:21.423Z,15.43
2018-06-05T10:53:49.477Z,16.00
2018-06-05T10:56:17.523Z,15.20
2018-06-05T10:58:45.918Z,14.80
2018-06-05T11:01:14.246Z,15.73
2018-06-05T11:03:42.815Z,15.60
2018-06-05T11:06:11.220Z,15.50
2018-06-05T11:08:41.611Z,14.63
2018-06-05T11:11:10.002Z,14.33
2018-06-05T11:13:38.341Z,16.30
2018-06-05T11:16:06.695Z,16.70
2018-06-05T11:18:35.035Z,15.27
2018-06-05T11:21:03.466Z,14.40
2018-06-05T11:23:31.837Z,13.53
2018-06-05T11:26:00.290Z,14.73
2018-06-05T11:28:28.641Z,14.00
2018-06-05T11:30:57.051Z,13.50
2018-06-05T11:33:25.685Z,12.47
2018-06-05T11:35:54.085Z,11.90
2018-06-05T11:38:22.462Z,11.70
2018-06-05T11:40:50.821Z,11.50
2018-06-05T11:43:19.240Z,11.67
2018-06-05T11:45:47.626Z,13.50
2018-06-05T11:48:16.001Z,10.97
2018-06-05T11:50:44.395Z,13.77
2018-06-05T11:53:12.818Z,10.60
2018-06-05T11:55:41.191Z,9.97
2018-06-05T11:58:09.642Z,9.07
2018-06-05T12:00:37.972Z,8.97
2018-06-05T12:03:06.340Z,8.67
2018-06-05T12:05:34.709Z,9.40
2018-06-05T12:08:03.082Z,8.30
2018-06-05T12:10:31.471Z,8.57
2018-06-05T12:12:59.529Z,8.33
2018-06-05T12:15:27.941Z,7.83
2018-06-05T12:17:56.274Z,8.90
2018-06-05T12:20:28.962Z,9.23
2018-06-05T12:22:57.604Z,8.80
2018-06-05T12:25:25.955Z,8.07
2018-06-05T12:27:54.312Z,7.90
2018-06-05T12:30:22.607Z,11.03
2018-06-05T12:32:50.986Z,7.87
2018-06-05T12:35:19.618Z,8.90
2018-06-05T12:37:48.005Z,7.53
2018-06-05T12:40:16.347Z,7.37
2018-06-05T12:42:44.688Z,8.73
2018-06-05T12:45:13.487Z,8.57
2018-06-05T12:47:41.901Z,7.10
2018-06-05T12:50:10.975Z,8.23
2018-06-05T12:52:39.372Z,7.10
2018-06-05T12:55:07.742Z,8.03
2018-06-05T12:57:36.507Z,8.10
2018-06-05T13:00:05.197Z,7.80
2018-06-05T13:02:33.522Z,8.63
2018-06-05T13:05:01.959Z,7.90
2018-06-05T13:07:30.274Z,7.97
2018-06-05T13:09:58.907Z,7.27
2018-06-05T13:12:27.287Z,7.53
2018-06-05T13:14:55.655Z,7.20
2018-06-05T13:17:24.007Z,7.87
2018-06-05T13:19:52.426Z,8.53
2018-06-05T13:22:20.778Z,7.40
2018-06-05T13:24:49.162Z,7.87
2018-06-05T13:27:17.726Z,7.80
2018-06-05T13:29:46.082Z,6.77
2018-06-05T13:32:14.432Z,7.27
2018-06-05T13:34:42.775Z,6.43
2018-06-05T13:37:11.210Z,7.03
2018-06-05T13:39:39.564Z,6.70
2018-06-05T13:42:07.933Z,6.50
2018-06-05T13:44:36.334Z,6.83
2018-06-05T13:47:04.747Z,7.07
2018-06-05T13:49:33.078Z,7.80
2018-06-05T13:52:01.508Z,7.30
2018-06-05T13:54:29.546Z,6.93
2018-06-05T13:56:57.932Z,6.63
2018-06-05T13:59:26.364Z,7.07
2018-06-05T14:01:54.695Z,6.97
2018-06-05T14:04:23.050Z,7.17
2018-06-05T14:06:51.419Z,6.00
2018-06-05T14:09:19.868Z,6.77
2018-06-05T14:11:48.159Z,5.93
2018-06-05T14:14:16.497Z,6.53
2018-06-05T14:16:44.541Z,7.30
2018-06-05T14:19:12.887Z,7.10
2018-06-05T14:21:41.270Z,8.37
2018-06-05T14:24:09.715Z,6.73
2018-06-05T14:26:38.096Z,7.77
2018-06-05T14:29:06.451Z,7.30
2018-06-05T14:31:34.827Z,7.40
2018-06-05T14:34:03.234Z,7.07
2018-06-05T14:36:31.602Z,7.50
2018-06-05T14:39:00.152Z,7.23
2018-06-05T14:41:28.513Z,6.50
2018-06-05T14:43:56.926Z,7.00
2018-06-05T14:46:25.271Z,7.33
2018-06-05T14:48:53.330Z,7.27
2018-06-05T14:51:21.451Z,6.83
2018-06-05T14:53:49.807Z,7.87
2018-06-05T14:56:18.240Z,6.93
2018-06-05T14:58:46.555Z,6.80
2018-06-05T15:01:14.886Z,7.53
2018-06-05T15:03:43.226Z,6.03
2018-06-05T15:06:11.740Z,6.53
2018-06-05T15:08:40.071Z,7.07
2018-06-05T15:11:08.425Z,6.70
2018-06-05T15:13:36.839Z,6.77
2018-06-05T15:16:05.262Z,7.17
2018-06-05T15:18:33.625Z,7.00
2018-06-05T15:21:02.029Z,6.47
2018-06-05T15:23:30.061Z,8.60
2018-06-05T15:25:58.444Z,6.50
2018-06-05T15:28:26.845Z,7.70
2018-06-05T15:30:55.266Z,6.67
2018-06-05T15:33:23.606Z,6.40
2018-06-05T15:35:51.978Z,5.43
2018-06-05T15:38:20.345Z,6.90
2018-06-05T15:40:48.734Z,6.30
2018-06-05T15:43:17.080Z,6.47
2018-06-05T15:45:45.135Z,7.20
2018-06-05T15:48:13.515Z,7.03
2018-06-05T15:50:41.893Z,6.60
2018-06-05T15:53:10.293Z,6.40
2018-06-05T15:55:38.647Z,6.07
2018-06-05T15:58:06.743Z,6.13
2018-06-05T16:00:35.366Z,4.83
2018-06-05T16:03:03.744Z,5.20
2018-06-05T16:05:32.266Z,4.37
2018-06-05T16:08:00.339Z,5.57
2018-06-05T16:10:28.724Z,5.37
2018-06-05T16:12:57.112Z,4.67
2018-06-05T16:15:25.507Z,4.10
2018-06-05T16:17:53.884Z,5.03
2018-06-05T16:20:22.272Z,5.40
2018-06-05T16:22:55.381Z,6.63
2018-06-05T16:25:23.502Z,5.87
2018-06-05T16:27:51.870Z,5.30
2018-06-05T16:30:20.376Z,5.37
2018-06-05T16:32:49.341Z,5.87
2018-06-05T16:35:17.698Z,5.30
2018-06-05T16:37:46.020Z,6.83
2018-06-05T16:40:14.406Z,4.37
2018-06-05T16:42:43.081Z,5.30
2018-06-05T16:45:11.580Z,5.80
2018-06-05T16:47:40.446Z,8.40
2018-06-05T16:50:11.594Z,4.60
2018-06-05T16:52:40.235Z,5.17
2018-06-05T16:55:08.886Z,5.93
2018-06-05T16:57:38.363Z,5.47
2018-06-05T17:00:08.356Z,6.00
2018-06-05T17:02:36.735Z,5.50
2018-06-05T17:05:05.210Z,5.27
2018-06-05T17:07:34.828Z,5.00
2018-06-05T17:10:03.263Z,5.73
2018-06-05T17:12:32.682Z,5.70
2018-06-05T17:15:01.039Z,11.27
2018-06-05T17:17:29.462Z,6.90
2018-06-05T17:19:57.511Z,7.20
2018-06-05T17:22:25.907Z,7.77
2018-06-05T17:24:54.747Z,6.20
2018-06-05T17:27:37.136Z,6.57
2018-06-05T17:30:10.499Z,5.67
2018-06-05T17:32:38.611Z,6.30
2018-06-05T17:35:06.967Z,7.00
2018-06-05T17:37:56.403Z,5.90
2018-06-05T17:40:26.263Z,6.07
2018-06-05T17:42:55.662Z,6.67
2018-06-05T17:45:24.001Z,6.93
2018-06-05T17:47:52.023Z,7.80
2018-06-05T17:50:20.405Z,7.87
2018-06-05T17:52:48.762Z,8.43
2018-06-05T17:55:17.145Z,11.83
2018-06-05T17:57:45.615Z,7.77
2018-06-05T18:00:13.958Z,8.77
2018-06-05T18:02:42.376Z,10.10
2018-06-05T18:05:10.866Z,11.37
2018-06-05T18:07:39.267Z,11.27
2018-06-05T18:10:07.396Z,10.47
2018-06-05T18:12:35.971Z,11.37
2018-06-05T18:15:05.400Z,12.20
2018-06-05T18:17:33.791Z,13.43
2018-06-05T18:20:02.318Z,18.40
2018-06-05T18:22:30.869Z,12.80
2018-06-05T18:24:59.203Z,13.47
2018-06-05T18:27:27.849Z,13.53
2018-06-05T18:29:56.611Z,14.37
2018-06-05T18:32:25.246Z,14.00
2018-06-05T18:34:53.699Z,12.50
2018-06-05T18:37:22.189Z,13.50
2018-06-05T18:39:50.518Z,13.73
2018-06-05T18:42:18.954Z,12.00
2018-06-05T18:44:47.395Z,11.87
2018-06-05T18:47:15.781Z,13.00
2018-06-05T18:49:44.602Z,12.93
2018-06-05T18:52:12.963Z,12.50
2018-06-05T18:54:41.424Z,12.73
2018-06-05T18:57:09.890Z,12.67
2018-06-05T18:59:38.326Z,12.63
2018-06-05T19:02:06.710Z,12.20
2018-06-05T19:04:49.244Z,11.73
2018-06-05T19:07:17.783Z,15.40
2018-06-05T19:09:46.375Z,14.50
2018-06-05T19:12:14.509Z,12.60
2018-06-05T19:14:47.105Z,12.37
2018-06-05T19:17:15.486Z,12.03
2018-06-05T19:19:43.618Z,12.43
2018-06-05T19:22:11.685Z,12.33
2018-06-05T19:24:40.082Z,11.27
2018-06-05T19:27:08.509Z,12.00
2018-06-05T19:29:36.959Z,12.87
2018-06-05T19:32:05.273Z,12.30
2018-06-05T19:34:33.630Z,13.10
2018-06-05T19:46:50.300Z,13.40
2018-06-05T19:49:19.401Z,14.90
2018-06-05T19:51:48.615Z,13.53
2018-06-05T19:54:17.997Z,13.80
2018-06-05T19:56:47.108Z,13.87
2018-06-05T20:12:16.236Z,15.67
2018-06-05T20:14:45.237Z,15.10
2018-06-05T20:17:14.852Z,18.33
2018-06-05T20:19:43.983Z,16.97
2018-06-05T20:22:13.290Z,16.50
2018-06-05T20:24:42.867Z,16.13
2018-06-05T20:27:14.165Z,18.20
2018-06-05T20:39:28.102Z,18.57
2018-06-05T20:41:56.875Z,18.73
2018-06-05T20:44:25.756Z,21.97
2018-06-05T20:46:54.292Z,19.10
2018-06-05T20:49:22.405Z,16.27
2018-06-05T20:51:50.842Z,19.73
2018-06-05T20:54:21.006Z,18.80
2018-06-05T20:56:49.600Z,18.93
2018-06-05T20:59:18.344Z,19.67
2018-06-05T21:01:47.463Z,18.10
2018-06-05T21:04:18.504Z,19.47
2018-06-05T21:06:47.708Z,17.77
2018-06-05T21:09:16.624Z,20.10
2018-06-05T21:11:46.580Z,17.90
2018-06-05T21:14:19.632Z,19.40
2018-06-05T21:16:49.503Z,19.07
2018-06-05T21:19:24.060Z,19.27
2018-06-05T21:21:53.958Z,19.50
2018-06-05T21:24:24.705Z,22.03
2018-06-05T21:36:42.786Z,18.43
2018-06-05T21:39:10.965Z,18.63
2018-06-05T21:41:39.362Z,19.33
2018-06-05T21:44:07.750Z,18.63
2018-06-05T21:46:36.162Z,18.30
2018-06-05T21:49:04.556Z,19.13
2018-06-05T21:51:32.929Z,18.43
2018-06-05T21:54:01.364Z,18.70
2018-06-05T21:56:29.686Z,19.73
2018-06-05T21:58:58.036Z,21.07
2018-06-05T22:01:26.395Z,19.00
2018-06-05T22:04:02.676Z,18.07
2018-06-05T22:06:31.087Z,18.43
2018-06-05T22:08:59.567Z,18.10
2018-06-05T22:11:28.279Z,18.77
2018-06-05T22:13:56.885Z,19.57
2018-06-05T22:16:29.806Z,19.20
2018-06-05T22:18:58.977Z,20.77
2018-06-05T22:21:27.632Z,18.03
2018-06-05T22:23:56.269Z,18.23
2018-06-05T22:26:24.758Z,18.60
2018-06-05T22:28:53.527Z,18.37
2018-06-05T22:31:22.129Z,17.17
2018-06-05T22:33:50.575Z,19.30
2018-06-05T22:36:19.172Z,20.57
2018-06-05T22:38:47.648Z,19.63
2018-06-05T22:41:16.129Z,19.13
2018-06-05T22:43:44.758Z,18.80
2018-06-05T22:46:13.340Z,18.47
2018-06-05T22:48:41.765Z,18.40
2018-06-05T22:51:10.218Z,18.33
2018-06-05T22:53:38.792Z,18.40
2018-06-05T22:56:07.314Z,17.37
2018-06-05T22:58:36.537Z,19.20
2018-06-05T23:01:05.017Z,18.97
2018-06-05T23:03:33.527Z,17.57
2018-06-05T23:06:02.439Z,18.10
2018-06-05T23:08:30.916Z,17.33
2018-06-05T23:10:59.551Z,21.83
2018-06-05T23:13:27.622Z,17.93
2018-06-05T23:15:56.019Z,17.33
2018-06-05T23:18:24.455Z,18.80
2018-06-05T23:20:52.990Z,17.93
2018-06-05T23:23:21.396Z,17.97
2018-06-05T23:25:49.761Z,18.53
2018-06-05T23:28:18.281Z,18.80
2018-06-05T23:30:46.706Z,18.13
2018-06-05T23:33:15.135Z,19.57
2018-06-05T23:35:43.571Z,18.33
2018-06-05T23:38:11.974Z,18.93
2018-06-05T23:40:40.377Z,17.10
2018-06-05T23:43:08.822Z,17.13
2018-06-05T23:45:37.285Z,20.10
2018-06-05T23:48:05.686Z,17.23
2018-06-05T23:50:34.057Z,18.50
2018-06-05T23:53:02.439Z,20.87
2018-06-05T23:55:30.830Z,18.20
2018-06-05T23:57:59.247Z,18.10
